sensor_id;sensor_type;location;lat;lon;timestamp;P1;durP1;ratioP1;P2;durP2;ratioP2
8411;SDS011;4243;49.296;11.348;2023-03-01T00:01:39;111.17;;;3.20;;
8411;SDS011;4243;49.296;11.348;2023-03-01T00:04:06;113.17;;;3.30;;
8411;SDS011;4243;49.296;11.348;2023-03-01T00:06:34;110.27;;;3.27;;
8411;SDS011;4243;49.296;11.348;2023-03-01T00:09:01;113.33;;;3.30;;
8411;SDS011;4243;49.296;11.348;2023-03-01T00:11:30;113.27;;;3.30;;
8411;SDS011;4243;49.296;11.348;2023-03-01T00:13:59;113.17;;;3.30;;
8411;SDS011;4243;49.296;11.348;2023-03-01T00:16:32;113.13;;;3.33;;
8411;SDS011;4243;49.296;11.348;2023-03-01T00:19:06;110.73;;;3.27;;
8411;SDS011;4243;49.296;11.348;2023-03-01T00:21:38;112.93;;;3.27;;
8411;SDS011;4243;49.296;11.348;2023-03-01T00:24:06;112.87;;;3.30;;
8411;SDS011;4243;49.296;11.348;2023-03-01T00:26:34;112.70;;;3.30;;
8411;SDS011;4243;49.296;11.348;2023-03-01T00:29:02;112.97;;;3.30;;
8411;SDS011;4243;49.296;11.348;2023-03-01T00:31:31;112.00;;;3.30;;
8411;SDS011;4243;49.296;11.348;2023-03-01T00:34:00;112.90;;;3.33;;
8411;SDS011;4243;49.296;11.348;2023-03-01T00:36:31;111.03;;;3.30;;
8411;SDS011;4243;49.296;11.348;2023-03-01T00:39:02;112.80;;;3.30;;
8411;SDS011;4243;49.296;11.348;2023-03-01T00:41:37;111.37;;;3.23;;
8411;SDS011;4243;49.296;11.348;2023-03-01T00:44:04;112.50;;;3.20;;
8411;SDS011;4243;49.296;11.348;2023-03-01T00:46:31;112.87;;;3.20;;
8411;SDS011;4243;49.296;11.348;2023-03-01T00:48:59;113.50;;;3.23;;
8411;SDS011;4243;49.296;11.348;2023-03-01T00:51:28;113.17;;;3.27;;
8411;SDS011;4243;49.296;11.348;2023-03-01T00:53:57;113.33;;;3.20;;
8411;SDS011;4243;49.296;11.348;2023-03-01T00:56:28;111.33;;;3.23;;
8411;SDS011;4243;49.296;11.348;2023-03-01T00:58:56;110.57;;;3.23;;
8411;SDS011;4243;49.296;11.348;2023-03-01T01:01:25;112.37;;;3.27;;
8411;SDS011;4243;49.296;11.348;2023-03-01T01:03:57;113.37;;;3.20;;
8411;SDS011;4243;49.296;11.348;2023-03-01T01:06:41;112.67;;;3.23;;
8411;SDS011;4243;49.296;11.348;2023-03-01T01:09:13;111.87;;;3.27;;
8411;SDS011;4243;49.296;11.348;2023-03-01T01:11:44;113.07;;;3.27;;
8411;SDS011;4243;49.296;11.348;2023-03-01T01:14:15;111.90;;;3.27;;
8411;SDS011;4243;49.296;11.348;2023-03-01T01:16:44;113.60;;;3.27;;
8411;SDS011;4243;49.296;11.348;2023-03-01T01:19:11;112.10;;;3.30;;
8411;SDS011;4243;49.296;11.348;2023-03-01T01:21:39;112.07;;;3.27;;
8411;SDS011;4243;49.296;11.348;2023-03-01T01:24:09;112.97;;;3.20;;
8411;SDS011;4243;49.296;11.348;2023-03-01T01:26:37;111.60;;;3.30;;
8411;SDS011;4243;49.296;11.348;2023-03-01T01:29:04;113.40;;;3.23;;
8411;SDS011;4243;49.296;11.348;2023-03-01T01:31:33;110.87;;;3.30;;
8411;SDS011;4243;49.296;11.348;2023-03-01T01:34:03;112.50;;;3.23;;
8411;SDS011;4243;49.296;11.348;2023-03-01T01:36:33;113.20;;;3.23;;
8411;SDS011;4243;49.296;11.348;2023-03-01T01:39:01;111.27;;;3.23;;
8411;SDS011;4243;49.296;11.348;2023-03-01T01:41:28;112.30;;;3.20;;
8411;SDS011;4243;49.296;11.348;2023-03-01T01:46:54;112.77;;;3.23;;
8411;SDS011;4243;49.296;11.348;2023-03-01T01:49:30;112.30;;;3.27;;
8411;SDS011;4243;49.296;11.348;2023-03-01T01:52:19;112.57;;;3.27;;
8411;SDS011;4243;49.296;11.348;2023-03-01T01:54:57;112.53;;;3.23;;
8411;SDS011;4243;49.296;11.348;2023-03-01T02:00:10;112.63;;;3.27;;
8411;SDS011;4243;49.296;11.348;2023-03-01T02:02:47;112.77;;;3.30;;
8411;SDS011;4243;49.296;11.348;2023-03-01T02:05:31;113.10;;;3.23;;
8411;SDS011;4243;49.296;11.348;2023-03-01T02:08:27;112.27;;;3.23;;
8411;SDS011;4243;49.296;11.348;2023-03-01T02:10:58;112.17;;;3.30;;
8411;SDS011;4243;49.296;11.348;2023-03-01T02:13:27;110.30;;;3.27;;
8411;SDS011;4243;49.296;11.348;2023-03-01T02:15:54;110.80;;;3.30;;
8411;SDS011;4243;49.296;11.348;2023-03-01T02:18:22;112.77;;;3.23;;
8411;SDS011;4243;49.296;11.348;2023-03-01T02:21:05;112.77;;;3.30;;
8411;SDS011;4243;49.296;11.348;2023-03-01T02:24:31;111.23;;;3.27;;
8411;SDS011;4243;49.296;11.348;2023-03-01T02:27:17;112.37;;;3.30;;
8411;SDS011;4243;49.296;11.348;2023-03-01T02:29:50;112.77;;;3.27;;
8411;SDS011;4243;49.296;11.348;2023-03-01T02:32:17;110.67;;;3.30;;
8411;SDS011;4243;49.296;11.348;2023-03-01T02:34:54;112.67;;;3.27;;
8411;SDS011;4243;49.296;11.348;2023-03-01T02:37:22;112.63;;;3.20;;
8411;SDS011;4243;49.296;11.348;2023-03-01T02:39:54;112.20;;;3.30;;
8411;SDS011;4243;49.296;11.348;2023-03-01T02:42:29;113.07;;;3.27;;
8411;SDS011;4243;49.296;11.348;2023-03-01T02:45:03;112.17;;;3.30;;
8411;SDS011;4243;49.296;11.348;2023-03-01T02:47:31;112.47;;;3.27;;
8411;SDS011;4243;49.296;11.348;2023-03-01T02:49:58;111.60;;;3.30;;
8411;SDS011;4243;49.296;11.348;2023-03-01T02:52:44;111.63;;;3.27;;
8411;SDS011;4243;49.296;11.348;2023-03-01T02:55:22;111.97;;;3.30;;
8411;SDS011;4243;49.296;11.348;2023-03-01T02:57:49;111.00;;;3.30;;
8411;SDS011;4243;49.296;11.348;2023-03-01T03:00:21;111.03;;;3.23;;
8411;SDS011;4243;49.296;11.348;2023-03-01T03:02:57;112.67;;;3.30;;
8411;SDS011;4243;49.296;11.348;2023-03-01T03:05:28;111.53;;;3.20;;
8411;SDS011;4243;49.296;11.348;2023-03-01T03:07:58;112.63;;;3.25;;
8411;SDS011;4243;49.296;11.348;2023-03-01T03:10:33;112.97;;;3.23;;
8411;SDS011;4243;49.296;11.348;2023-03-01T03:13:07;112.33;;;3.23;;
8411;SDS011;4243;49.296;11.348;2023-03-01T03:15:39;111.17;;;3.27;;
8411;SDS011;4243;49.296;11.348;2023-03-01T03:18:15;112.72;;;3.28;;
8411;SDS011;4243;49.296;11.348;2023-03-01T03:20:43;111.10;;;3.30;;
8411;SDS011;4243;49.296;11.348;2023-03-01T03:23:11;111.40;;;3.20;;
8411;SDS011;4243;49.296;11.348;2023-03-01T03:25:39;111.97;;;3.20;;
8411;SDS011;4243;49.296;11.348;2023-03-01T03:28:07;110.10;;;3.27;;
8411;SDS011;4243;49.296;11.348;2023-03-01T03:30:40;112.27;;;3.20;;
8411;SDS011;4243;49.296;11.348;2023-03-01T03:33:09;112.07;;;3.20;;
8411;SDS011;4243;49.296;11.348;2023-03-01T03:35:48;112.70;;;3.30;;
8411;SDS011;4243;49.296;11.348;2023-03-01T03:38:17;112.37;;;3.23;;
8411;SDS011;4243;49.296;11.348;2023-03-01T03:40:49;112.20;;;3.27;;
8411;SDS011;4243;49.296;11.348;2023-03-01T03:43:30;110.60;;;3.20;;
8411;SDS011;4243;49.296;11.348;2023-03-01T03:46:01;111.50;;;3.27;;
8411;SDS011;4243;49.296;11.348;2023-03-01T03:48:37;111.70;;;3.23;;
8411;SDS011;4243;49.296;11.348;2023-03-01T03:51:12;111.57;;;3.27;;
8411;SDS011;4243;49.296;11.348;2023-03-01T03:53:43;112.40;;;3.30;;
8411;SDS011;4243;49.296;11.348;2023-03-01T03:56:11;112.37;;;3.30;;
8411;SDS011;4243;49.296;11.348;2023-03-01T03:58:39;110.17;;;3.23;;
8411;SDS011;4243;49.296;11.348;2023-03-01T04:01:06;111.67;;;3.30;;
8411;SDS011;4243;49.296;11.348;2023-03-01T04:03:33;109.20;;;3.27;;
8411;SDS011;4243;49.296;11.348;2023-03-01T04:06:01;111.00;;;3.27;;
8411;SDS011;4243;49.296;11.348;2023-03-01T04:08:30;112.27;;;3.27;;
8411;SDS011;4243;49.296;11.348;2023-03-01T04:11:01;111.68;;;3.30;;
8411;SDS011;4243;49.296;11.348;2023-03-01T04:13:51;111.68;;;3.28;;
8411;SDS011;4243;49.296;11.348;2023-03-01T04:16:23;112.07;;;3.30;;
8411;SDS011;4243;49.296;11.348;2023-03-01T04:18:51;111.57;;;3.27;;
8411;SDS011;4243;49.296;11.348;2023-03-01T04:21:19;111.10;;;3.30;;
8411;SDS011;4243;49.296;11.348;2023-03-01T04:23:47;111.95;;;3.35;;
8411;SDS011;4243;49.296;11.348;2023-03-01T04:26:18;111.78;;;3.33;;
8411;SDS011;4243;49.296;11.348;2023-03-01T04:28:46;111.22;;;3.33;;
8411;SDS011;4243;49.296;11.348;2023-03-01T04:31:16;111.18;;;3.30;;
8411;SDS011;4243;49.296;11.348;2023-03-01T04:33:51;111.53;;;3.30;;
8411;SDS011;4243;49.296;11.348;2023-03-01T04:36:22;110.65;;;3.33;;
8411;SDS011;4243;49.296;11.348;2023-03-01T04:38:54;110.60;;;3.30;;
8411;SDS011;4243;49.296;11.348;2023-03-01T04:41:23;111.57;;;3.33;;
8411;SDS011;4243;49.296;11.348;2023-03-01T04:43:51;110.82;;;3.33;;
8411;SDS011;4243;49.296;11.348;2023-03-01T04:46:19;111.95;;;3.30;;
8411;SDS011;4243;49.296;11.348;2023-03-01T04:48:54;111.57;;;3.30;;
8411;SDS011;4243;49.296;11.348;2023-03-01T04:51:21;111.68;;;3.38;;
8411;SDS011;4243;49.296;11.348;2023-03-01T04:53:49;111.73;;;3.30;;
8411;SDS011;4243;49.296;11.348;2023-03-01T04:56:16;111.57;;;3.30;;
8411;SDS011;4243;49.296;11.348;2023-03-01T04:58:44;111.57;;;3.30;;
8411;SDS011;4243;49.296;11.348;2023-03-01T05:01:13;110.10;;;3.30;;
8411;SDS011;4243;49.296;11.348;2023-03-01T05:03:47;111.13;;;3.30;;
8411;SDS011;4243;49.296;11.348;2023-03-01T05:06:17;111.28;;;3.20;;
8411;SDS011;4243;49.296;11.348;2023-03-01T05:08:46;111.87;;;3.27;;
8411;SDS011;4243;49.296;11.348;2023-03-01T05:11:13;111.40;;;3.30;;
8411;SDS011;4243;49.296;11.348;2023-03-01T05:13:41;110.85;;;3.28;;
8411;SDS011;4243;49.296;11.348;2023-03-01T05:16:08;111.65;;;3.30;;
8411;SDS011;4243;49.296;11.348;2023-03-01T05:18:37;111.38;;;3.33;;
8411;SDS011;4243;49.296;11.348;2023-03-01T05:21:10;110.90;;;3.33;;
8411;SDS011;4243;49.296;11.348;2023-03-01T05:23:42;111.35;;;3.30;;
8411;SDS011;4243;49.296;11.348;2023-03-01T05:26:09;110.87;;;3.30;;
8411;SDS011;4243;49.296;11.348;2023-03-01T05:28:53;111.03;;;3.30;;
8411;SDS011;4243;49.296;11.348;2023-03-01T05:31:24;111.18;;;3.30;;
8411;SDS011;4243;49.296;11.348;2023-03-01T05:33:51;111.50;;;3.30;;
8411;SDS011;4243;49.296;11.348;2023-03-01T05:36:19;110.97;;;3.27;;
8411;SDS011;4243;49.296;11.348;2023-03-01T05:38:46;112.00;;;3.30;;
8411;SDS011;4243;49.296;11.348;2023-03-01T05:41:14;111.50;;;3.27;;
8411;SDS011;4243;49.296;11.348;2023-03-01T05:43:43;111.77;;;3.33;;
8411;SDS011;4243;49.296;11.348;2023-03-01T05:46:11;110.97;;;3.28;;
8411;SDS011;4243;49.296;11.348;2023-03-01T05:48:39;111.85;;;3.30;;
8411;SDS011;4243;49.296;11.348;2023-03-01T05:51:07;111.47;;;3.25;;
8411;SDS011;4243;49.296;11.348;2023-03-01T05:53:34;111.90;;;3.23;;
8411;SDS011;4243;49.296;11.348;2023-03-01T05:56:04;111.47;;;3.28;;
8411;SDS011;4243;49.296;11.348;2023-03-01T05:58:32;111.90;;;3.30;;
8411;SDS011;4243;49.296;11.348;2023-03-01T06:00:59;111.27;;;3.23;;
8411;SDS011;4243;49.296;11.348;2023-03-01T06:03:26;111.17;;;3.30;;
8411;SDS011;4243;49.296;11.348;2023-03-01T06:05:56;110.90;;;3.27;;
8411;SDS011;4243;49.296;11.348;2023-03-01T06:08:24;111.90;;;3.30;;
8411;SDS011;4243;49.296;11.348;2023-03-01T06:10:53;110.23;;;3.27;;
8411;SDS011;4243;49.296;11.348;2023-03-01T06:13:20;111.37;;;3.23;;
8411;SDS011;4243;49.296;11.348;2023-03-01T06:15:49;111.57;;;3.37;;
8411;SDS011;4243;49.296;11.348;2023-03-01T06:18:16;111.27;;;3.30;;
8411;SDS011;4243;49.296;11.348;2023-03-01T06:20:43;109.47;;;3.20;;
8411;SDS011;4243;49.296;11.348;2023-03-01T06:23:10;111.97;;;3.30;;
8411;SDS011;4243;49.296;11.348;2023-03-01T06:25:37;110.20;;;3.30;;
8411;SDS011;4243;49.296;11.348;2023-03-01T06:28:04;110.10;;;3.30;;
8411;SDS011;4243;49.296;11.348;2023-03-01T06:30:31;112.18;;;3.25;;
8411;SDS011;4243;49.296;11.348;2023-03-01T06:32:58;110.60;;;3.30;;
8411;SDS011;4243;49.296;11.348;2023-03-01T06:35:29;109.53;;;3.20;;
8411;SDS011;4243;49.296;11.348;2023-03-01T06:37:58;111.77;;;3.23;;
8411;SDS011;4243;49.296;11.348;2023-03-01T06:40:29;111.67;;;3.20;;
8411;SDS011;4243;49.296;11.348;2023-03-01T06:42:57;111.70;;;3.27;;
8411;SDS011;4243;49.296;11.348;2023-03-01T06:45:25;110.90;;;3.23;;
8411;SDS011;4243;49.296;11.348;2023-03-01T06:47:52;111.57;;;3.20;;
8411;SDS011;4243;49.296;11.348;2023-03-01T06:50:29;111.57;;;3.23;;
8411;SDS011;4243;49.296;11.348;2023-03-01T06:52:57;109.37;;;3.20;;
8411;SDS011;4243;49.296;11.348;2023-03-01T06:55:24;111.67;;;3.20;;
8411;SDS011;4243;49.296;11.348;2023-03-01T06:57:55;109.90;;;3.20;;
8411;SDS011;4243;49.296;11.348;2023-03-01T07:00:25;111.17;;;3.17;;
8411;SDS011;4243;49.296;11.348;2023-03-01T07:02:54;111.07;;;3.20;;
8411;SDS011;4243;49.296;11.348;2023-03-01T07:05:24;111.30;;;3.17;;
8411;SDS011;4243;49.296;11.348;2023-03-01T07:07:52;112.30;;;3.30;;
8411;SDS011;4243;49.296;11.348;2023-03-01T07:10:21;111.43;;;3.20;;
8411;SDS011;4243;49.296;11.348;2023-03-01T07:12:48;111.87;;;3.20;;
8411;SDS011;4243;49.296;11.348;2023-03-01T07:15:15;111.57;;;3.20;;
8411;SDS011;4243;49.296;11.348;2023-03-01T07:17:43;112.20;;;3.10;;
8411;SDS011;4243;49.296;11.348;2023-03-01T07:20:11;110.93;;;3.17;;
8411;SDS011;4243;49.296;11.348;2023-03-01T07:22:42;110.50;;;3.10;;
8411;SDS011;4243;49.296;11.348;2023-03-01T07:25:09;108.90;;;3.13;;
8411;SDS011;4243;49.296;11.348;2023-03-01T07:27:37;111.37;;;3.23;;
8411;SDS011;4243;49.296;11.348;2023-03-01T07:30:04;110.17;;;3.17;;
8411;SDS011;4243;49.296;11.348;2023-03-01T07:32:32;112.27;;;3.20;;
8411;SDS011;4243;49.296;11.348;2023-03-01T07:35:00;110.77;;;3.13;;
8411;SDS011;4243;49.296;11.348;2023-03-01T07:37:27;111.17;;;3.10;;
8411;SDS011;4243;49.296;11.348;2023-03-01T07:39:55;111.73;;;3.10;;
8411;SDS011;4243;49.296;11.348;2023-03-01T07:42:22;111.80;;;3.13;;
8411;SDS011;4243;49.296;11.348;2023-03-01T07:44:49;111.20;;;3.10;;
8411;SDS011;4243;49.296;11.348;2023-03-01T07:47:16;111.97;;;3.07;;
8411;SDS011;4243;49.296;11.348;2023-03-01T07:49:43;111.67;;;3.10;;
8411;SDS011;4243;49.296;11.348;2023-03-01T07:52:11;112.10;;;3.07;;
8411;SDS011;4243;49.296;11.348;2023-03-01T07:54:38;110.77;;;3.10;;
8411;SDS011;4243;49.296;11.348;2023-03-01T07:57:08;111.80;;;3.10;;
8411;SDS011;4243;49.296;11.348;2023-03-01T07:59:36;111.73;;;3.10;;
8411;SDS011;4243;49.296;11.348;2023-03-01T08:02:03;112.37;;;3.07;;
8411;SDS011;4243;49.296;11.348;2023-03-01T08:04:30;112.33;;;3.00;;
8411;SDS011;4243;49.296;11.348;2023-03-01T08:06:59;111.50;;;3.00;;
8411;SDS011;4243;49.296;11.348;2023-03-01T08:09:26;110.77;;;2.90;;
8411;SDS011;4243;49.296;11.348;2023-03-01T08:11:53;112.47;;;3.00;;
8411;SDS011;4243;49.296;11.348;2023-03-01T08:14:22;112.27;;;3.00;;
8411;SDS011;4243;49.296;11.348;2023-03-01T08:16:49;112.47;;;3.00;;
8411;SDS011;4243;49.296;11.348;2023-03-01T08:19:17;110.37;;;3.00;;
8411;SDS011;4243;49.296;11.348;2023-03-01T08:21:44;112.20;;;3.00;;
8411;SDS011;4243;49.296;11.348;2023-03-01T08:24:12;112.00;;;3.00;;
8411;SDS011;4243;49.296;11.348;2023-03-01T08:26:39;111.70;;;3.00;;
8411;SDS011;4243;49.296;11.348;2023-03-01T08:29:06;111.27;;;2.97;;
8411;SDS011;4243;49.296;11.348;2023-03-01T08:31:38;112.20;;;3.00;;
8411;SDS011;4243;49.296;11.348;2023-03-01T08:34:08;112.27;;;2.90;;
8411;SDS011;4243;49.296;11.348;2023-03-01T08:36:40;110.87;;;3.00;;
8411;SDS011;4243;49.296;11.348;2023-03-01T08:39:12;110.50;;;2.97;;
8411;SDS011;4243;49.296;11.348;2023-03-01T08:41:43;112.60;;;3.00;;
8411;SDS011;4243;49.296;11.348;2023-03-01T08:44:13;112.50;;;3.00;;
8411;SDS011;4243;49.296;11.348;2023-03-01T08:46:45;112.77;;;2.97;;
8411;SDS011;4243;49.296;11.348;2023-03-01T08:49:14;113.27;;;3.07;;
8411;SDS011;4243;49.296;11.348;2023-03-01T08:51:45;112.97;;;2.93;;
8411;SDS011;4243;49.296;11.348;2023-03-01T08:54:14;112.50;;;3.00;;
8411;SDS011;4243;49.296;11.348;2023-03-01T08:56:46;112.40;;;2.97;;
8411;SDS011;4243;49.296;11.348;2023-03-01T08:59:15;113.27;;;3.00;;
8411;SDS011;4243;49.296;11.348;2023-03-01T09:03:35;113.10;;;3.00;;
8411;SDS011;4243;49.296;11.348;2023-03-01T09:06:03;113.57;;;3.00;;
8411;SDS011;4243;49.296;11.348;2023-03-01T09:08:34;113.87;;;3.07;;
8411;SDS011;4243;49.296;11.348;2023-03-01T09:11:05;113.30;;;2.90;;
8411;SDS011;4243;49.296;11.348;2023-03-01T09:13:35;113.97;;;2.90;;
8411;SDS011;4243;49.296;11.348;2023-03-01T09:16:03;113.67;;;2.90;;
8411;SDS011;4243;49.296;11.348;2023-03-01T09:18:33;115.10;;;2.70;;
8411;SDS011;4243;49.296;11.348;2023-03-01T09:21:06;115.60;;;2.80;;
8411;SDS011;4243;49.296;11.348;2023-03-01T09:23:41;115.50;;;2.63;;
8411;SDS011;4243;49.296;11.348;2023-03-01T09:26:15;116.00;;;2.63;;
8411;SDS011;4243;49.296;11.348;2023-03-01T09:28:48;116.63;;;2.63;;
8411;SDS011;4243;49.296;11.348;2023-03-01T09:31:19;116.20;;;2.60;;
8411;SDS011;4243;49.296;11.348;2023-03-01T09:33:49;117.10;;;2.60;;
8411;SDS011;4243;49.296;11.348;2023-03-01T09:36:19;115.17;;;2.60;;
8411;SDS011;4243;49.296;11.348;2023-03-01T09:38:51;116.87;;;2.57;;
8411;SDS011;4243;49.296;11.348;2023-03-01T09:44:47;115.67;;;2.50;;
8411;SDS011;4243;49.296;11.348;2023-03-01T09:47:26;115.37;;;2.50;;
8411;SDS011;4243;49.296;11.348;2023-03-01T09:52:38;116.70;;;2.50;;
8411;SDS011;4243;49.296;11.348;2023-03-01T09:55:39;116.67;;;2.60;;
8411;SDS011;4243;49.296;11.348;2023-03-01T10:01:31;116.20;;;2.50;;
8411;SDS011;4243;49.296;11.348;2023-03-01T10:10:49;116.97;;;2.40;;
8411;SDS011;4243;49.296;11.348;2023-03-01T10:13:20;116.20;;;2.40;;
8411;SDS011;4243;49.296;11.348;2023-03-01T10:19:15;116.10;;;2.40;;
8411;SDS011;4243;49.296;11.348;2023-03-01T10:21:57;116.30;;;2.60;;
8411;SDS011;4243;49.296;11.348;2023-03-01T10:24:41;116.20;;;2.47;;
8411;SDS011;4243;49.296;11.348;2023-03-01T10:27:34;117.00;;;2.53;;
8411;SDS011;4243;49.296;11.348;2023-03-01T10:33:52;116.07;;;2.37;;
8411;SDS011;4243;49.296;11.348;2023-03-01T10:36:05;116.47;;;2.10;;
8411;SDS011;4243;49.296;11.348;2023-03-01T10:41:21;116.17;;;2.20;;
8411;SDS011;4243;49.296;11.348;2023-03-01T10:43:53;115.70;;;2.17;;
8411;SDS011;4243;49.296;11.348;2023-03-01T10:46:36;115.80;;;2.10;;
8411;SDS011;4243;49.296;11.348;2023-03-01T10:49:14;115.80;;;2.20;;
8411;SDS011;4243;49.296;11.348;2023-03-01T10:51:49;116.00;;;2.37;;
8411;SDS011;4243;49.296;11.348;2023-03-01T10:54:20;116.37;;;2.30;;
8411;SDS011;4243;49.296;11.348;2023-03-01T10:56:56;116.17;;;2.30;;
8411;SDS011;4243;49.296;11.348;2023-03-01T10:59:28;116.00;;;2.20;;
8411;SDS011;4243;49.296;11.348;2023-03-01T11:07:54;116.13;;;2.27;;
8411;SDS011;4243;49.296;11.348;2023-03-01T11:10:25;116.77;;;2.20;;
8411;SDS011;4243;49.296;11.348;2023-03-01T11:15:58;116.27;;;2.10;;
8411;SDS011;4243;49.296;11.348;2023-03-01T11:18:34;115.13;;;1.97;;
8411;SDS011;4243;49.296;11.348;2023-03-01T11:21:13;115.33;;;2.10;;
8411;SDS011;4243;49.296;11.348;2023-03-01T11:23:42;115.03;;;2.10;;
8411;SDS011;4243;49.296;11.348;2023-03-01T11:26:12;114.87;;;1.80;;
8411;SDS011;4243;49.296;11.348;2023-03-01T11:28:43;114.97;;;1.97;;
8411;SDS011;4243;49.296;11.348;2023-03-01T11:31:21;115.67;;;2.00;;
8411;SDS011;4243;49.296;11.348;2023-03-01T11:33:55;115.23;;;1.93;;
8411;SDS011;4243;49.296;11.348;2023-03-01T11:36:51;115.60;;;1.93;;
8411;SDS011;4243;49.296;11.348;2023-03-01T11:45:22;115.40;;;2.00;;
8411;SDS011;4243;49.296;11.348;2023-03-01T11:47:55;115.77;;;2.10;;
8411;SDS011;4243;49.296;11.348;2023-03-01T11:51:23;115.67;;;2.03;;
8411;SDS011;4243;49.296;11.348;2023-03-01T12:03:58;115.80;;;2.23;;
8411;SDS011;4243;49.296;11.348;2023-03-01T12:07:26;116.23;;;2.10;;
8411;SDS011;4243;49.296;11.348;2023-03-01T12:10:47;115.33;;;2.10;;
8411;SDS011;4243;49.296;11.348;2023-03-01T12:19:29;115.97;;;2.23;;
8411;SDS011;4243;49.296;11.348;2023-03-01T12:22:28;116.37;;;2.20;;
8411;SDS011;4243;49.296;11.348;2023-03-01T12:25:26;116.37;;;2.20;;
8411;SDS011;4243;49.296;11.348;2023-03-01T12:31:50;115.83;;;2.20;;
8411;SDS011;4243;49.296;11.348;2023-03-01T12:41:08;116.00;;;2.07;;
8411;SDS011;4243;49.296;11.348;2023-03-01T12:50:12;116.47;;;2.23;;
8411;SDS011;4243;49.296;11.348;2023-03-01T12:52:50;116.40;;;2.17;;
8411;SDS011;4243;49.296;11.348;2023-03-01T12:58:22;116.57;;;2.20;;
8411;SDS011;4243;49.296;11.348;2023-03-01T13:04:39;116.10;;;2.10;;
8411;SDS011;4243;49.296;11.348;2023-03-01T13:07:35;116.00;;;2.10;;
8411;SDS011;4243;49.296;11.348;2023-03-01T13:10:40;115.77;;;2.10;;
8411;SDS011;4243;49.296;11.348;2023-03-01T13:15:50;115.93;;;2.00;;
8411;SDS011;4243;49.296;11.348;2023-03-01T13:20:46;115.90;;;2.07;;
8411;SDS011;4243;49.296;11.348;2023-03-01T13:28:42;116.27;;;2.03;;
8411;SDS011;4243;49.296;11.348;2023-03-01T13:39:04;116.40;;;2.00;;
8411;SDS011;4243;49.296;11.348;2023-03-01T13:42:28;115.47;;;2.10;;
8411;SDS011;4243;49.296;11.348;2023-03-01T13:44:59;116.40;;;2.07;;
8411;SDS011;4243;49.296;11.348;2023-03-01T13:47:27;116.07;;;2.20;;
8411;SDS011;4243;49.296;11.348;2023-03-01T13:49:56;116.47;;;2.00;;
8411;SDS011;4243;49.296;11.348;2023-03-01T13:55:20;116.40;;;2.07;;
8411;SDS011;4243;49.296;11.348;2023-03-01T13:57:57;116.33;;;2.17;;
8411;SDS011;4243;49.296;11.348;2023-03-01T14:05:43;117.03;;;2.13;;
8411;SDS011;4243;49.296;11.348;2023-03-01T14:08:39;117.00;;;2.30;;
8411;SDS011;4243;49.296;11.348;2023-03-01T14:17:30;117.50;;;2.27;;
8411;SDS011;4243;49.296;11.348;2023-03-01T14:20:30;116.90;;;2.27;;
8411;SDS011;4243;49.296;11.348;2023-03-01T14:23:10;116.83;;;2.30;;
8411;SDS011;4243;49.296;11.348;2023-03-01T14:25:48;116.80;;;2.30;;
8411;SDS011;4243;49.296;11.348;2023-03-01T14:30:55;116.37;;;2.30;;
8411;SDS011;4243;49.296;11.348;2023-03-01T14:33:26;117.37;;;2.30;;
8411;SDS011;4243;49.296;11.348;2023-03-01T14:36:11;117.67;;;2.20;;
8411;SDS011;4243;49.296;11.348;2023-03-01T14:38:41;116.67;;;2.30;;
8411;SDS011;4243;49.296;11.348;2023-03-01T14:41:13;116.80;;;2.23;;
8411;SDS011;4243;49.296;11.348;2023-03-01T14:43:52;116.60;;;2.30;;
8411;SDS011;4243;49.296;11.348;2023-03-01T14:46:31;117.87;;;2.30;;
8411;SDS011;4243;49.296;11.348;2023-03-01T14:49:05;117.70;;;2.40;;
8411;SDS011;4243;49.296;11.348;2023-03-01T14:51:39;118.00;;;2.33;;
8411;SDS011;4243;49.296;11.348;2023-03-01T14:54:18;117.87;;;2.40;;
8411;SDS011;4243;49.296;11.348;2023-03-01T14:57:25;117.60;;;2.37;;
8411;SDS011;4243;49.296;11.348;2023-03-01T14:59:53;116.57;;;2.43;;
8411;SDS011;4243;49.296;11.348;2023-03-01T15:02:26;117.30;;;2.37;;
8411;SDS011;4243;49.296;11.348;2023-03-01T15:04:58;117.40;;;2.40;;
8411;SDS011;4243;49.296;11.348;2023-03-01T15:07:36;117.13;;;2.43;;
8411;SDS011;4243;49.296;11.348;2023-03-01T15:10:11;117.40;;;2.40;;
8411;SDS011;4243;49.296;11.348;2023-03-01T15:12:49;117.67;;;2.40;;
8411;SDS011;4243;49.296;11.348;2023-03-01T15:17:55;116.77;;;2.47;;
8411;SDS011;4243;49.296;11.348;2023-03-01T15:20:27;117.30;;;2.50;;
8411;SDS011;4243;49.296;11.348;2023-03-01T15:22:58;116.67;;;2.50;;
8411;SDS011;4243;49.296;11.348;2023-03-01T15:25:28;117.43;;;2.50;;
8411;SDS011;4243;49.296;11.348;2023-03-01T15:27:58;117.50;;;2.50;;
8411;SDS011;4243;49.296;11.348;2023-03-01T15:30:32;118.00;;;2.40;;
8411;SDS011;4243;49.296;11.348;2023-03-01T15:33:17;118.07;;;2.60;;
8411;SDS011;4243;49.296;11.348;2023-03-01T15:36:29;118.00;;;2.50;;
8411;SDS011;4243;49.296;11.348;2023-03-01T15:39:26;118.63;;;2.60;;
8411;SDS011;4243;49.296;11.348;2023-03-01T15:45:09;118.20;;;2.70;;
8411;SDS011;4243;49.296;11.348;2023-03-01T15:47:47;117.90;;;2.67;;
8411;SDS011;4243;49.296;11.348;2023-03-01T15:50:24;118.00;;;2.67;;
8411;SDS011;4243;49.296;11.348;2023-03-01T15:52:56;118.20;;;2.73;;
8411;SDS011;4243;49.296;11.348;2023-03-01T15:55:27;118.00;;;2.80;;
8411;SDS011;4243;49.296;11.348;2023-03-01T15:58:00;118.07;;;2.73;;
8411;SDS011;4243;49.296;11.348;2023-03-01T16:00:42;117.50;;;2.80;;
8411;SDS011;4243;49.296;11.348;2023-03-01T16:03:25;117.80;;;2.80;;
8411;SDS011;4243;49.296;11.348;2023-03-01T16:05:52;117.70;;;2.80;;
8411;SDS011;4243;49.296;11.348;2023-03-01T16:08:20;117.50;;;2.90;;
8411;SDS011;4243;49.296;11.348;2023-03-01T16:10:48;117.60;;;2.90;;
8411;SDS011;4243;49.296;11.348;2023-03-01T16:13:17;116.87;;;2.87;;
8411;SDS011;4243;49.296;11.348;2023-03-01T16:15:45;117.40;;;2.80;;
8411;SDS011;4243;49.296;11.348;2023-03-01T16:18:12;116.27;;;2.80;;
8411;SDS011;4243;49.296;11.348;2023-03-01T16:20:40;117.27;;;2.97;;
8411;SDS011;4243;49.296;11.348;2023-03-01T16:23:09;116.47;;;2.80;;
8411;SDS011;4243;49.296;11.348;2023-03-01T16:25:37;116.90;;;2.83;;
8411;SDS011;4243;49.296;11.348;2023-03-01T16:28:04;116.90;;;2.80;;
8411;SDS011;4243;49.296;11.348;2023-03-01T16:30:36;117.20;;;2.80;;
8411;SDS011;4243;49.296;11.348;2023-03-01T16:33:05;116.57;;;2.80;;
8411;SDS011;4243;49.296;11.348;2023-03-01T16:35:54;116.67;;;2.90;;
8411;SDS011;4243;49.296;11.348;2023-03-01T16:38:21;116.30;;;2.87;;
8411;SDS011;4243;49.296;11.348;2023-03-01T16:40:49;116.17;;;2.87;;
8411;SDS011;4243;49.296;11.348;2023-03-01T16:43:18;116.80;;;2.90;;
8411;SDS011;4243;49.296;11.348;2023-03-01T16:45:46;115.93;;;2.90;;
8411;SDS011;4243;49.296;11.348;2023-03-01T16:48:13;116.30;;;2.87;;
8411;SDS011;4243;49.296;11.348;2023-03-01T16:50:40;116.17;;;3.00;;
8411;SDS011;4243;49.296;11.348;2023-03-01T16:53:08;116.17;;;2.90;;
8411;SDS011;4243;49.296;11.348;2023-03-01T16:55:35;116.10;;;2.87;;
8411;SDS011;4243;49.296;11.348;2023-03-01T16:58:03;116.60;;;2.83;;
8411;SDS011;4243;49.296;11.348;2023-03-01T17:00:31;115.97;;;2.90;;
8411;SDS011;4243;49.296;11.348;2023-03-01T17:02:59;115.37;;;2.83;;
8411;SDS011;4243;49.296;11.348;2023-03-01T17:05:26;116.20;;;2.90;;
8411;SDS011;4243;49.296;11.348;2023-03-01T17:07:53;115.30;;;2.90;;
8411;SDS011;4243;49.296;11.348;2023-03-01T17:10:21;116.30;;;2.93;;
8411;SDS011;4243;49.296;11.348;2023-03-01T17:12:49;116.20;;;2.83;;
8411;SDS011;4243;49.296;11.348;2023-03-01T17:15:16;116.07;;;2.90;;